Time;durP1;ratioP1;P1;durP2;ratioP2;P2;SDS_P1;SDS_P2;PMS_P1;PMS_P2;Temp;Humidity;BMP_temperature;BMP_pressure;BME280_temperature;BME280_humidity;BME280_pressure;Samples;Min_cycle;Max_cycle;Signal;HPM_P1;HPM_P2
2021/04/11 00:00:10;;;;;;;45.58;23.70;;;;;;;3.73;70.30;98170.09;1788784;78;21134;-74
2021/04/11 00:02:39;;;;;;;41.83;20.17;;;;;;;3.71;73.23;98169.52;1788772;80;21102;-74
2021/04/11 00:05:07;;;;;;;41.70;21.35;;;;;;;3.68;73.28;98164.92;1788748;78;21122;-74
2021/04/11 00:07:33;;;;;;;43.92;22.58;;;;;;;3.70;73.01;98156.64;1788863;80;21071;-75
2021/04/11 00:09:59;;;;;;;36.95;18.90;;;;;;;3.66;74.47;98162.16;1788734;78;21187;-75
2021/04/11 00:12:26;;;;;;;39.73;20.17;;;;;;;3.64;72.26;98162.39;1788757;80;20900;-74
2021/04/11 00:14:52;;;;;;;42.75;21.70;;;;;;;3.55;72.41;98159.77;1788745;80;21126;-75
2021/04/11 00:17:18;;;;;;;37.40;21.05;;;;;;;3.53;73.73;98155.69;1788704;78;21031;-75
2021/04/11 00:19:44;;;;;;;41.08;20.82;;;;;;;3.49;74.63;98158.52;1788885;80;21134;-74
2021/04/11 00:22:11;;;;;;;47.08;22.02;;;;;;;3.52;72.32;98154.88;1788733;78;22001;-75
2021/04/11 00:24:37;;;;;;;40.88;21.25;;;;;;;3.52;72.16;98151.39;1788686;80;21115;-74
2021/04/11 00:27:03;;;;;;;38.85;21.90;;;;;;;3.39;74.65;98150.53;1788717;78;21083;-75
2021/04/11 00:29:29;;;;;;;50.25;21.33;;;;;;;3.39;72.46;98152.39;1764446;80;21531;-75
2021/04/11 00:31:56;;;;;;;41.92;20.72;;;;;;;3.40;72.58;98152.16;1788821;78;21015;-74
2021/04/11 00:34:22;;;;;;;36.25;20.12;;;;;;;3.40;74.78;98148.67;1788870;80;21104;-75
2021/04/11 00:36:49;;;;;;;42.48;21.65;;;;;;;3.42;72.41;98150.62;1786496;78;21063;-74
2021/04/11 00:39:15;;;;;;;43.20;21.00;;;;;;;3.43;72.01;98147.41;1785237;80;21494;-74
2021/04/11 00:41:44;;;;;;;36.68;18.52;;;;;;;3.40;74.29;98148.67;1785066;79;21091;-75
2021/04/11 00:44:10;;;;;;;39.15;20.48;;;;;;;3.38;73.98;98152.92;1785168;80;21101;-74
2021/04/11 00:46:45;;;;;;;31.27;17.87;;;;;;;3.37;74.46;98160.67;1756589;80;21196;-74
2021/04/11 00:49:21;;;;;;;43.42;20.25;;;;;;;3.42;72.50;98159.99;1755743;80;21090;-74
2021/04/11 00:51:47;;;;;;;34.67;18.87;;;;;;;3.52;72.24;98158.89;1785096;79;21084;-74
2021/04/11 00:54:14;;;;;;;41.28;22.10;;;;;;;3.56;71.94;98156.03;1785152;80;21115;-74
2021/04/11 00:56:40;;;;;;;36.93;19.70;;;;;;;3.55;74.00;98157.09;1785037;79;21114;-75
2021/04/11 00:59:08;;;;;;;33.53;18.45;;;;;;;3.55;72.07;98154.41;1756754;80;21185;-75
2021/04/11 01:01:36;;;;;;;33.53;17.48;;;;;;;3.48;72.69;98156.37;1785082;79;21090;-75
2021/04/11 01:04:08;;;;;;;37.03;21.48;;;;;;;3.41;73.28;98161.02;1785245;80;21110;-74
2021/04/11 01:06:39;;;;;;;44.83;22.77;;;;;;;3.44;71.97;98160.57;1785154;79;21117;-73
2021/04/11 01:09:21;;;;;;;46.10;21.95;;;;;;;3.50;71.87;98152.11;1785254;80;21475;-74
2021/04/11 01:11:48;;;;;;;37.98;20.12;;;;;;;3.48;74.03;98168.42;1785032;79;22068;-73
2021/04/11 01:14:14;;;;;;;35.52;19.42;;;;;;;3.45;73.96;98159.52;1785185;80;21138;-73
2021/04/11 01:16:40;;;;;;;29.60;16.62;;;;;;;3.33;73.76;98159.51;1785030;79;21138;-73
2021/04/11 01:19:09;;;;;;;39.40;21.57;;;;;;;3.27;72.84;98161.75;1785125;80;21567;-73
2021/04/11 01:21:44;;;;;;;41.75;18.20;;;;;;;3.19;74.39;98171.98;1784158;79;21015;-74
2021/04/11 01:24:38;;;;;;;34.38;16.80;;;;;;;3.19;72.79;98168.78;1785311;80;21391;-73
2021/04/11 01:27:06;;;;;;;31.27;17.87;;;;;;;3.20;73.89;98178.44;1785174;79;21082;-74
2021/04/11 01:29:33;;;;;;;35.48;17.20;;;;;;;3.17;75.09;98170.88;1785503;80;21531;-74
2021/04/11 01:31:59;;;;;;;29.80;15.70;;;;;;;3.14;73.14;98167.81;1785316;79;21040;-74
2021/04/11 01:34:26;;;;;;;30.15;15.95;;;;;;;3.14;72.68;98164.62;1785352;80;21122;-74
2021/04/11 01:36:52;;;;;;;31.37;16.32;;;;;;;3.18;74.63;98169.02;1759898;80;21467;-74
2021/04/11 01:39:23;;;;;;;27.35;15.70;;;;;;;3.16;72.50;98164.38;1788808;80;21531;-74
2021/04/11 01:41:51;;;;;;;32.13;19.32;;;;;;;3.14;73.67;98162.46;1788832;78;21071;-74
2021/04/11 01:44:21;;;;;;;34.20;20.43;;;;;;;3.14;73.60;98168.63;1789122;80;21102;-74
2021/04/11 01:46:51;;;;;;;32.40;14.70;;;;;;;3.09;73.61;98157.81;1788259;78;21139;-75
2021/04/11 01:49:19;;;;;;;23.80;14.38;;;;;;;3.07;73.64;98166.05;1765135;80;21258;-74
2021/04/11 01:51:50;;;;;;;25.62;14.53;;;;;;;2.92;75.78;98157.63;1788809;78;21043;-75
2021/04/11 01:54:20;;;;;;;25.75;12.90;;;;;;;2.87;74.78;98166.03;1765165;80;21070;-74
2021/04/11 01:56:47;;;;;;;25.37;11.53;;;;;;;2.78;73.01;98171.70;1764671;80;21035;-74
2021/04/11 01:59:18;;;;;;;25.12;13.85;;;;;;;2.65;73.47;98176.39;1788882;80;21130;-74
2021/04/11 02:01:48;;;;;;;19.37;12.05;;;;;;;2.55;74.37;98172.91;1788795;78;21261;-74
2021/04/11 02:04:14;;;;;;;21.77;12.43;;;;;;;2.56;73.66;98179.89;1788088;80;21091;-74
2021/04/11 02:06:54;;;;;;;26.27;14.25;;;;;;;2.59;74.71;98179.98;1788783;78;21122;-74
2021/04/11 02:09:26;;;;;;;28.70;15.08;;;;;;;2.60;74.06;98176.27;1788873;80;21086;-74
2021/04/11 02:11:52;;;;;;;27.80;14.33;;;;;;;2.59;73.86;98175.97;1787887;78;21459;-74
2021/04/11 02:14:19;;;;;;;29.42;14.35;;;;;;;2.54;73.29;98167.27;1788861;80;21315;-74
2021/04/11 02:16:45;;;;;;;29.45;15.85;;;;;;;2.46;75.86;98165.71;1788706;78;21066;-74
2021/04/11 02:19:20;;;;;;;26.57;15.28;;;;;;;2.46;74.14;98164.37;1788854;80;21142;-74
2021/04/11 02:21:53;;;;;;;31.00;15.45;;;;;;;2.45;75.80;98159.25;1788854;78;21440;-74
2021/04/11 02:24:19;;;;;;;31.90;15.78;;;;;;;2.46;75.34;98156.34;1765315;80;21051;-74
2021/04/11 02:26:46;;;;;;;29.50;14.23;;;;;;;2.50;75.71;98152.20;1788774;78;21440;-74
2021/04/11 02:29:18;;;;;;;31.55;15.10;;;;;;;2.49;73.86;98153.24;1788876;80;21098;-74
2021/04/11 02:31:45;;;;;;;34.85;17.32;;;;;;;2.42;74.31;98145.81;1788858;78;21475;-74
2021/04/11 02:34:23;;;;;;;29.15;16.35;;;;;;;2.42;76.63;98149.83;1788848;80;21114;-74
2021/04/11 02:36:57;;;;;;;36.13;16.25;;;;;;;2.39;76.70;98142.75;1786107;78;21075;-74
2021/04/11 02:39:26;;;;;;;33.45;17.02;;;;;;;2.44;75.64;98150.94;1780907;80;21234;-74
2021/04/11 02:41:54;;;;;;;35.80;20.52;;;;;;;2.39;77.14;98150.26;1780526;79;21111;-74
2021/04/11 02:44:20;;;;;;;26.70;16.73;;;;;;;2.30;77.25;98146.25;1780803;80;21126;-74
2021/04/11 02:46:47;;;;;;;27.62;14.20;;;;;;;2.16;77.60;98149.61;1780724;79;21098;-74
2021/04/11 02:49:17;;;;;;;31.02;14.13;;;;;;;2.13;76.78;98157.23;1780924;80;21508;-74
2021/04/11 02:51:43;;;;;;;28.65;15.72;;;;;;;2.10;76.33;98153.16;1780640;79;21487;-74
2021/04/11 02:54:14;;;;;;;29.48;15.25;;;;;;;2.04;75.34;98163.39;1780816;80;21555;-76
2021/04/11 02:56:41;;;;;;;23.55;13.20;;;;;;;1.90;77.47;98154.71;1780735;79;21554;-75
2021/04/11 02:59:10;;;;;;;24.27;13.10;;;;;;;1.88;75.55;98160.80;1780859;80;21126;-74
2021/04/11 03:01:40;;;;;;;33.98;15.10;;;;;;;1.77;76.35;98158.83;1780843;79;21012;-74
2021/04/11 03:04:06;;;;;;;29.85;14.70;;;;;;;1.71;75.73;98155.72;1780890;80;22046;-75
2021/04/11 03:06:36;;;;;;;22.77;15.03;;;;;;;1.71;74.42;98155.72;1780640;79;21173;-75
2021/04/11 03:09:08;;;;;;;22.98;13.03;;;;;;;1.72;74.29;98146.67;1780003;80;21094;-75
2021/04/11 03:11:47;;;;;;;37.80;19.30;;;;;;;1.72;74.74;98148.01;1780709;79;21195;-75
2021/04/11 03:14:13;;;;;;;;;;;;;;;1.73;77.83;98146.15;1783135;80;21118;-74
2021/04/11 03:16:40;;;;;;;22.82;12.93;;;;;;;1.80;76.31;98150.92;1780679;79;21186;-74
2021/04/11 03:19:06;;;;;;;24.65;12.63;;;;;;;1.77;78.53;98155.34;1780823;80;21059;-74
2021/04/11 03:21:34;;;;;;;22.58;12.45;;;;;;;1.79;78.25;98154.08;1780708;79;21086;-74
2021/04/11 03:24:00;;;;;;;27.07;14.78;;;;;;;1.84;77.19;98152.09;1780766;80;21548;-74
2021/04/11 03:26:51;;;;;;;39.67;19.57;;;;;;;1.74;79.79;98149.93;1780802;79;21404;-74
2021/04/11 03:29:38;;;;;;;225.15;100.12;;;;;;;1.75;78.04;98148.08;1780854;80;21199;-74
2021/04/11 03:32:12;;;;;;;54.42;29.70;;;;;;;1.69;76.56;98146.56;1779980;79;21055;-74
2021/04/11 03:34:39;;;;;;;34.03;18.30;;;;;;;1.63;77.17;98133.30;1762185;81;21076;-74
2021/04/11 03:37:06;;;;;;;36.55;18.35;;;;;;;1.62;78.87;98134.30;1781949;79;21134;-74
2021/04/11 03:39:33;;;;;;;51.58;25.45;;;;;;;1.57;78.86;98133.64;1785191;80;21499;-74
2021/04/11 03:42:10;;;;;;;265.07;116.70;;;;;;;1.53;79.00;98131.09;1785205;79;21531;-74
2021/04/11 03:44:36;;;;;;;123.28;54.70;;;;;;;1.51;79.09;98125.68;1785116;80;21436;-74
2021/04/11 03:47:11;;;;;;;65.35;32.85;;;;;;;1.51;76.57;98125.16;1785125;79;21126;-74
2021/04/11 03:50:07;;;;;;;24.65;11.30;;;;;;;1.55;77.68;98117.55;1785260;80;21086;-74
2021/04/11 03:53:01;;;;;;;42.10;20.15;;;;;;;1.60;76.64;98121.17;1785225;80;21063;-73
2021/04/11 03:55:31;;;;;;;71.97;33.42;;;;;;;1.63;76.65;98120.75;1785154;79;21152;-74
2021/04/11 03:57:59;;;;;;;146.20;66.02;;;;;;;1.68;76.48;98122.23;1785178;80;21075;-74
2021/04/11 04:00:29;;;;;;;46.45;27.77;;;;;;;1.64;79.07;98121.57;1785250;79;21047;-74
2021/04/11 04:03:01;;;;;;;42.90;18.82;;;;;;;1.64;78.50;98122.91;1785030;80;21031;-74
2021/04/11 04:05:28;;;;;;;76.57;31.52;;;;;;;1.57;79.33;98113.61;1785275;79;21019;-74
2021/04/11 04:07:57;;;;;;;86.10;42.25;;;;;;;1.58;77.72;98111.23;1785137;80;21184;-74
2021/04/11 04:10:41;;;;;;;57.35;29.18;;;;;;;1.56;76.74;98111.98;1785074;79;21050;-74
2021/04/11 04:13:24;;;;;;;39.05;20.62;;;;;;;1.54;76.02;98116.73;1784545;80;21051;-73
2021/04/11 04:16:14;;;;;;;19.87;11.20;;;;;;;1.58;77.04;98118.43;1784973;79;21561;-74
2021/04/11 04:18:48;;;;;;;37.90;16.93;;;;;;;1.62;79.28;98125.80;1785159;80;21118;-75
2021/04/11 04:21:55;;;;;;;40.33;19.75;;;;;;;1.72;77.30;98130.64;1785255;79;21199;-74
2021/04/11 04:24:33;;;;;;;63.00;27.10;;;;;;;1.77;78.96;98115.27;1785098;80;21075;-73
2021/04/11 04:27:28;;;;;;;76.55;34.35;;;;;;;1.77;78.98;98127.29;1784975;79;21280;-74
2021/04/11 04:30:20;;;;;;;153.02;63.05;;;;;;;1.78;78.05;98127.59;1785118;80;21103;-74
2021/04/11 04:33:15;;;;;;;130.35;59.42;;;;;;;1.65;79.39;98119.19;1785161;80;21044;-73
2021/04/11 04:36:02;;;;;;;114.52;54.77;;;;;;;1.65;78.66;98118.67;1785196;79;22038;-73
2021/04/11 04:38:57;;;;;;;70.92;33.45;;;;;;;1.74;77.79;98113.86;1784826;80;21099;-73
2021/04/11 04:41:44;;;;;;;21.62;12.20;;;;;;;1.86;75.92;98114.75;1785183;79;21491;-73
2021/04/11 04:44:39;;;;;;;22.45;10.32;;;;;;;1.81;75.34;98121.30;1785188;80;21508;-75
2021/04/11 04:47:46;;;;;;;62.95;30.50;;;;;;;1.74;75.40;98117.87;1785203;79;21019;-73
2021/04/11 04:50:23;;;;;;;68.52;36.38;;;;;;;1.71;76.66;98118.32;1785143;79;21247;-75
2021/04/11 04:53:19;;;;;;;44.83;24.27;;;;;;;1.84;77.20;98113.35;1785130;80;21122;-74
2021/04/11 04:55:52;;;;;;;41.70;23.30;;;;;;;1.93;78.22;98111.50;1785064;79;21412;-74
2021/04/11 04:58:28;;;;;;;32.95;20.65;;;;;;;2.11;77.85;98115.22;1785348;80;21444;-74
2021/04/11 05:01:00;;;;;;;52.67;25.77;;;;;;;2.26;78.11;98119.67;1756795;80;21074;-75
2021/04/11 05:03:34;;;;;;;85.83;41.75;;;;;;;2.29;78.10;98121.89;1785296;80;21118;-74
2021/04/11 05:06:17;;;;;;;248.68;79.42;;;;;;;2.38;76.83;98113.86;1785312;79;21082;-74
2021/04/11 05:09:08;;;;;;;153.85;59.20;;;;;;;2.50;76.32;98128.13;1785262;80;21086;-74
2021/04/11 05:12:07;;;;;;;164.62;56.85;;;;;;;2.62;76.04;98120.14;1785259;79;21058;-73
2021/04/11 05:14:41;;;;;;;194.60;69.17;;;;;;;2.73;76.14;98107.84;1757115;80;21107;-73
2021/04/11 05:17:15;;;;;;;158.07;63.33;;;;;;;2.84;76.46;98100.41;1785183;79;22050;-73
2021/04/11 05:19:44;;;;;;;126.20;57.78;;;;;;;3.00;74.76;98113.66;1752152;80;21078;-74
2021/04/11 05:22:29;;;;;;;;;;;;;;;3.04;75.69;98105.45;1787975;79;21531;-74
2021/04/11 05:25:12;;;;;;;161.77;65.10;;;;;;;3.21;75.12;98105.08;1784503;79;20218;-73
2021/04/11 05:27:51;;;;;;;134.47;56.02;;;;;;;3.35;74.67;98105.17;1773687;80;21039;-73
2021/04/11 05:30:32;;;;;;;79.43;36.93;;;;;;;3.52;75.19;98113.88;1785601;79;21194;-73
2021/04/11 05:32:58;;;;;;;71.45;36.30;;;;;;;3.76;74.70;98103.95;1785294;80;21428;-74
2021/04/11 05:35:24;;;;;;;82.78;42.23;;;;;;;3.90;74.01;98104.02;1785319;79;21412;-74
2021/04/11 05:38:30;;;;;;;60.08;31.60;;;;;;;3.97;74.41;98098.01;1785121;80;21127;-74
2021/04/11 05:41:10;;;;;;;47.73;26.40;;;;;;;4.12;73.69;98098.87;1785232;79;21106;-74
2021/04/11 05:43:43;;;;;;;57.27;32.95;;;;;;;4.17;73.17;98092.25;1785098;80;21449;-73
2021/04/11 05:46:16;;;;;;;46.25;29.15;;;;;;;4.25;73.08;98090.54;1785293;79;21023;-75
2021/04/11 05:49:09;;;;;;;34.27;20.05;;;;;;;4.38;72.91;98086.79;1756635;80;21110;-74
2021/04/11 05:51:44;;;;;;;40.70;24.40;;;;;;;4.55;72.70;98101.61;1735733;80;21012;-75
2021/04/11 05:54:21;;;;;;;40.50;20.02;;;;;;;4.70;73.06;98084.44;1757011;80;21118;-73
2021/04/11 05:56:52;;;;;;;26.15;16.30;;;;;;;4.92;72.62;98075.99;1785207;79;21096;-74
2021/04/11 05:59:38;;;;;;;28.05;16.27;;;;;;;5.19;73.34;98084.23;1785310;80;21038;-74
2021/04/11 06:02:04;;;;;;;29.35;17.12;;;;;;;5.43;72.57;98086.78;1784487;79;21094;-73
2021/04/11 06:04:53;;;;;;;27.67;15.18;;;;;;;5.74;72.41;98083.50;1785192;80;21142;-73
2021/04/11 06:07:25;;;;;;;;;;;;;;;6.03;71.95;98074.78;1787845;79;21067;-73
2021/04/11 06:10:09;;;;;;;89.92;36.08;;;;;;;6.24;70.26;98077.22;1785180;80;21469;-74
2021/04/11 06:12:59;;;;;;;79.10;31.80;;;;;;;6.45;69.32;98085.81;1785246;80;21201;-74
2021/04/11 06:15:45;;;;;;;39.78;19.07;;;;;;;6.62;69.73;98074.16;1785076;79;21030;-74
2021/04/11 06:18:13;;;;;;;30.55;17.15;;;;;;;6.95;69.28;98071.27;1785138;80;21130;-73
2021/04/11 06:20:39;;;;;;;35.28;20.85;;;;;;;7.27;67.73;98074.53;1785218;79;21074;-74
2021/04/11 06:23:26;;;;;;;41.65;24.40;;;;;;;7.42;68.24;98065.73;1785212;80;21104;-74
2021/04/11 06:26:35;;;;;;;25.88;16.20;;;;;;;7.69;66.74;98072.39;1785171;79;21099;-72
2021/04/11 06:29:09;;;;;;;26.40;15.40;;;;;;;8.04;66.39;98060.48;1727081;82;21517;-72
2021/04/11 06:31:48;;;;;;;35.78;19.40;;;;;;;8.51;64.95;98049.37;1731789;81;21073;-74
2021/04/11 06:34:33;;;;;;;28.05;14.73;;;;;;;9.06;64.96;98044.63;1847380;76;22449;-73
2021/04/11 06:37:02;;;;;;;23.87;13.70;;;;;;;9.23;64.69;98037.07;1790549;79;20971;-74
2021/04/11 06:39:32;;;;;;;21.60;12.93;;;;;;;9.52;65.29;98041.91;1786050;80;21133;-74
2021/04/11 06:42:41;;;;;;;26.73;15.35;;;;;;;9.75;64.01;98041.35;1755234;80;20995;-74
2021/04/11 06:45:23;;;;;;;28.10;15.00;;;;;;;10.16;62.65;98036.61;1764138;79;21106;-74
2021/04/11 06:48:38;;;;;;;22.65;14.53;;;;;;;10.34;60.64;98037.95;1785985;79;21448;-74
2021/04/11 06:51:31;;;;;;;27.60;15.32;;;;;;;10.56;60.97;98030.80;1785694;79;20889;-74
2021/04/11 06:54:33;;;;;;;20.85;10.28;;;;;;;10.95;59.05;98030.84;1785839;79;21182;-73
2021/04/11 06:57:26;;;;;;;12.45;9.63;;;;;;;11.66;56.55;98018.58;1784993;79;21082;-74
2021/04/11 07:00:07;;;;;;;14.33;9.40;;;;;;;12.37;56.19;98017.00;1785343;80;21109;-74
2021/04/11 07:02:55;;;;;;;13.45;6.62;;;;;;;13.14;52.23;98020.80;1785669;80;21031;-73
2021/04/11 07:06:08;;;;;;;18.77;9.38;;;;;;;13.60;51.44;98014.66;1786106;79;21015;-75
2021/04/11 07:09:13;;;;;;;10.35;6.22;;;;;;;14.34;52.14;98013.48;1785816;80;21259;-74
2021/04/11 07:11:56;;;;;;;12.20;7.42;;;;;;;15.19;49.87;98017.91;1742046;80;21110;-75
2021/04/11 07:14:46;;;;;;;10.95;6.55;;;;;;;15.91;48.92;98018.32;1785960;80;21049;-74
2021/04/11 07:18:03;;;;;;;10.08;6.92;;;;;;;16.67;48.03;98022.20;1785819;79;21015;-74
2021/04/11 07:21:11;;;;;;;11.33;6.92;;;;;;;17.36;45.91;98013.48;1785977;79;21035;-75
2021/04/11 07:24:22;;;;;;;12.58;7.92;;;;;;;18.07;40.57;98006.71;1785974;79;21103;-75
2021/04/11 07:27:01;;;;;;;8.70;6.85;;;;;;;18.21;38.52;97985.37;1785386;79;21134;-75
2021/04/11 07:30:03;;;;;;;11.53;6.72;;;;;;;19.24;40.00;97996.23;1785798;80;21087;-75
2021/04/11 07:33:11;;;;;;;10.93;7.15;;;;;;;19.98;39.67;97993.12;1741095;79;21122;-75
2021/04/11 07:36:02;;;;;;;;;;;;;;;20.70;37.71;97997.07;1802483;78;21141;-75
2021/04/11 07:39:11;;;;;;;6.50;3.37;;;;;;;21.46;36.59;97994.58;1781483;80;21188;-75
2021/04/11 07:42:22;;;;;;;3.10;1.77;;;;;;;22.07;33.51;97992.84;1781345;79;21098;-76
2021/04/11 07:45:15;;;;;;;9.58;3.60;;;;;;;22.67;27.39;97992.15;1774942;80;21105;-75
2021/04/11 07:47:56;;;;;;;4.47;2.70;;;;;;;22.66;27.46;97983.06;1780939;80;21402;-76
2021/04/11 07:50:36;;;;;;;9.90;2.98;;;;;;;22.92;25.84;97978.34;1762271;81;21037;-75
2021/04/11 07:53:19;;;;;;;12.53;3.70;;;;;;;22.98;24.86;97975.48;1780904;80;22028;-76
2021/04/11 07:56:00;;;;;;;8.18;2.30;;;;;;;22.51;24.50;97991.59;1746920;81;21135;-75
2021/04/11 07:58:53;;;;;;;7.33;2.02;;;;;;;22.91;22.90;97995.28;1780803;80;21095;-75
2021/04/11 08:01:53;;;;;;;8.75;2.17;;;;;;;23.00;22.23;97986.20;1780972;79;21127;-76
2021/04/11 08:04:45;;;;;;;7.40;3.00;;;;;;;22.63;23.82;97981.59;1762195;81;21108;-75
2021/04/11 08:07:26;;;;;;;4.12;2.02;;;;;;;23.08;24.11;97985.20;1732112;81;21203;-76
2021/04/11 08:10:16;;;;;;;4.70;1.90;;;;;;;23.11;22.15;97987.81;1780870;80;21087;-75
2021/04/11 08:13:10;;;;;;;7.72;3.20;;;;;;;23.58;22.28;97988.94;1762282;81;21089;-76
2021/04/11 08:16:06;;;;;;;13.68;2.98;;;;;;;24.00;22.51;97998.64;1780830;79;21075;-76
2021/04/11 08:19:13;;;;;;;5.30;2.77;;;;;;;24.78;21.21;98004.66;1761722;81;21062;-76
2021/04/11 08:22:13;;;;;;;11.57;2.58;;;;;;;24.88;20.70;98006.81;1748267;82;21196;-75
2021/04/11 08:25:05;;;;;;;5.22;1.82;;;;;;;25.13;19.20;98019.66;1780801;80;21090;-75
2021/04/11 08:27:47;;;;;;;3.95;1.98;;;;;;;25.06;19.78;98023.72;1780803;80;21102;-76
2021/04/11 08:30:42;;;;;;;4.78;2.20;;;;;;;25.43;18.58;98022.41;1780906;79;21051;-75
2021/04/11 08:33:29;;;;;;;6.33;2.20;;;;;;;24.66;19.26;98018.16;1699091;83;21518;-76
2021/04/11 08:36:37;;;;;;;5.65;1.70;;;;;;;24.57;19.23;98014.84;1707930;83;21418;-76
2021/04/11 08:39:56;;;;;;;8.53;2.47;;;;;;;25.00;18.27;98024.59;1757024;81;21116;-74
2021/04/11 08:42:31;;;;;;;9.25;2.27;;;;;;;23.56;19.23;98033.55;1756896;81;21128;-76
2021/04/11 08:45:42;;;;;;;7.25;3.10;;;;;;;23.20;19.41;98021.55;1757061;81;21188;-74
2021/04/11 08:48:35;;;;;;;8.50;1.70;;;;;;;23.71;19.73;98018.66;1757239;81;21087;-76
2021/04/11 08:51:28;;;;;;;8.40;4.00;;;;;;;24.54;17.93;98016.19;1757081;81;21267;-75
2021/04/11 08:54:21;;;;;;;6.25;2.58;;;;;;;24.80;18.38;98011.23;1757111;81;21080;-75
2021/04/11 08:57:16;;;;;;;11.50;5.05;;;;;;;23.22;20.11;98006.78;1756936;81;21124;-75
2021/04/11 08:59:59;;;;;;;6.92;1.98;;;;;;;23.22;20.55;97999.88;1757058;81;21080;-74
2021/04/11 09:02:57;;;;;;;11.43;2.60;;;;;;;22.77;20.29;98019.20;1756554;81;21524;-75
2021/04/11 09:05:41;;;;;;;;;;;;;;;23.67;19.97;98018.61;1728591;83;21272;-75
2021/04/11 09:08:33;;;;;;;23.87;3.50;;;;;;;25.35;19.04;98015.77;1722434;83;20490;-75
2021/04/11 09:11:13;;;;;;;6.00;2.33;;;;;;;26.87;16.68;98012.89;1748336;81;21127;-75
2021/04/11 09:14:06;;;;;;;6.78;2.40;;;;;;;27.10;16.59;98030.14;1757051;81;21103;-76
2021/04/11 09:17:00;;;;;;;8.03;2.50;;;;;;;27.64;15.67;98013.08;1756900;81;21020;-76
2021/04/11 09:19:46;;;;;;;2.72;1.72;;;;;;;26.80;16.61;98016.41;1750079;81;21196;-76
2021/04/11 09:22:50;;;;;;;5.10;1.45;;;;;;;26.48;17.34;98023.12;1756439;81;21730;-76
2021/04/11 09:25:24;;;;;;;11.55;1.92;;;;;;;27.16;16.37;98030.55;1756679;81;21274;-76
2021/04/11 09:28:12;;;;;;;2.75;1.25;;;;;;;27.06;16.57;98027.92;1757193;81;21100;-76
2021/04/11 09:31:10;;;;;;;3.37;1.60;;;;;;;26.30;17.49;98029.89;1757370;81;21108;-76
2021/04/11 09:34:19;;;;;;;5.25;1.82;;;;;;;26.73;17.24;98031.65;1789986;80;21194;-75
2021/04/11 09:37:29;;;;;;;4.30;1.55;;;;;;;25.79;17.73;98040.88;1789875;79;21072;-76
2021/04/11 09:40:26;;;;;;;6.22;2.35;;;;;;;23.90;20.17;98022.77;1789830;79;21444;-75
2021/04/11 09:43:49;;;;;;;7.13;1.30;;;;;;;22.67;21.86;98030.81;1790280;80;21049;-75
2021/04/11 09:46:48;;;;;;;10.20;2.00;;;;;;;21.88;21.82;98034.92;1789900;79;21033;-75
2021/04/11 09:49:44;;;;;;;5.25;1.87;;;;;;;20.75;23.36;98019.41;1789919;80;21191;-75
2021/04/11 09:52:19;;;;;;;6.62;2.22;;;;;;;20.50;23.91;98026.89;1789526;79;21485;-74
2021/04/11 09:55:00;;;;;;;3.50;1.67;;;;;;;20.30;24.56;98028.58;1789911;80;21446;-75
2021/04/11 09:58:01;;;;;;;5.53;2.05;;;;;;;20.17;25.12;98022.86;1762455;80;21516;-75
2021/04/11 10:00:35;;;;;;;10.18;2.47;;;;;;;20.05;25.21;98025.58;1789340;79;21410;-73
2021/04/11 10:03:39;;;;;;;6.45;2.52;;;;;;;19.68;25.63;98041.98;1781753;80;21189;-75
2021/04/11 10:06:43;;;;;;;10.55;3.42;;;;;;;19.69;25.85;98047.14;1789885;79;21096;-75
2021/04/11 10:09:33;;;;;;;6.90;3.08;;;;;;;19.75;25.89;98042.25;1784275;80;21108;-75
2021/04/11 10:12:10;;;;;;;15.40;13.38;;;;;;;19.67;26.24;98032.14;1789564;80;21477;-75
2021/04/11 10:15:01;;;;;;;4.50;3.02;;;;;;;19.60;26.39;98042.87;1790136;80;21108;-75
2021/04/11 10:17:38;;;;;;;5.60;1.72;;;;;;;19.70;26.45;98033.63;1789963;79;21504;-75
2021/04/11 10:20:25;;;;;;;3.12;1.40;;;;;;;19.61;26.37;98030.16;1788074;80;21064;-76
2021/04/11 10:23:02;;;;;;;9.35;2.30;;;;;;;19.32;27.08;98040.67;1789198;80;21093;-76
2021/04/11 10:25:55;;;;;;;3.37;1.70;;;;;;;19.16;27.05;98043.22;1782432;79;21088;-74
2021/04/11 10:28:39;;;;;;;2.27;1.37;;;;;;;19.02;27.57;98039.92;1789293;80;21092;-75
2021/04/11 10:31:57;;;;;;;4.72;1.92;;;;;;;18.76;27.95;98053.03;1789857;79;22120;-74
2021/04/11 10:34:41;;;;;;;9.10;2.45;;;;;;;18.69;28.16;98047.25;1789984;80;21097;-74
2021/04/11 10:37:24;;;;;;;6.40;2.92;;;;;;;18.58;29.09;98033.89;1789176;79;21175;-74
2021/04/11 10:39:59;;;;;;;8.13;3.67;;;;;;;18.70;28.80;98051.60;1789740;80;21099;-75
2021/04/11 10:43:01;;;;;;;5.83;1.70;;;;;;;18.69;29.03;98043.14;1789323;79;21024;-75
2021/04/11 10:46:02;;;;;;;7.30;1.87;;;;;;;18.99;28.73;98043.36;1789954;79;22244;-75
2021/04/11 10:48:51;;;;;;;4.83;1.90;;;;;;;19.06;28.57;98043.63;1789837;80;21102;-75
2021/04/11 10:51:42;;;;;;;;;;;;;;;19.32;27.96;98032.44;1792120;79;21131;-75
2021/04/11 10:54:51;;;;;;;4.60;2.33;;;;;;;18.92;28.73;98027.17;1718890;83;20494;-76
2021/04/11 10:57:44;;;;;;;4.00;2.52;;;;;;;18.82;28.97;98032.49;1744782;81;21522;-75
2021/04/11 11:00:42;;;;;;;6.50;2.10;;;;;;;18.56;29.39;98026.56;1789932;80;21190;-74
2021/04/11 11:04:03;;;;;;;5.60;2.47;;;;;;;18.82;29.54;98047.02;1789906;80;21506;-74
2021/04/11 11:07:02;;;;;;;6.30;2.87;;;;;;;18.75;29.50;98040.45;1789805;79;21077;-75
2021/04/11 11:10:04;;;;;;;39.95;23.75;;;;;;;18.92;29.60;98038.16;1787835;80;21466;-75
2021/04/11 11:13:02;;;;;;;4.50;2.20;;;;;;;19.26;29.46;98045.33;1789860;79;21502;-75
2021/04/11 11:15:48;;;;;;;14.07;6.00;;;;;;;19.20;29.47;98035.11;1761495;79;21261;-74
2021/04/11 11:18:29;;;;;;;6.75;3.70;;;;;;;19.09;30.09;98044.89;1789845;80;21450;-75
2021/04/11 11:21:07;;;;;;;9.33;5.10;;;;;;;18.92;30.37;98040.90;1789293;79;21037;-74
2021/04/11 11:23:59;;;;;;;8.73;3.12;;;;;;;18.88;30.72;98028.39;1790213;80;21100;-74
2021/04/11 11:26:54;;;;;;;3.52;2.05;;;;;;;18.74;31.20;98034.16;1789959;79;21005;-74
2021/04/11 11:30:02;;;;;;;3.58;1.65;;;;;;;18.60;31.60;98039.04;1789240;80;22007;-74
2021/04/11 11:32:35;;;;;;;;;;;;;;;18.51;31.87;98038.28;1792319;78;21483;-74
2021/04/11 11:35:08;;;;;;;20.82;7.95;;;;;;;17.91;33.07;98044.25;1789660;80;20482;-75
2021/04/11 11:37:56;;;;;;;5.70;3.37;;;;;;;17.84;33.15;98052.73;1789755;79;21078;-74
2021/04/11 11:41:05;;;;;;;7.35;5.08;;;;;;;17.74;33.59;98046.47;1789737;80;21031;-74
2021/04/11 11:43:59;;;;;;;56.08;30.40;;;;;;;17.51;33.90;98048.32;1789691;80;21459;-75
2021/04/11 11:46:54;;;;;;;20.17;9.18;;;;;;;17.22;34.59;98067.59;1789597;79;21033;-75
2021/04/11 11:49:35;;;;;;;8.65;4.65;;;;;;;17.10;35.09;98072.35;1789739;80;21074;-74
2021/04/11 11:52:24;;;;;;;13.53;6.03;;;;;;;16.67;35.95;98064.03;1789597;79;21078;-75
2021/04/11 11:55:05;;;;;;;8.68;4.55;;;;;;;16.62;36.06;98058.70;1729042;81;21060;-75
2021/04/11 11:57:57;;;;;;;10.50;6.65;;;;;;;16.45;36.55;98056.72;1753663;81;21366;-75
2021/04/11 12:00:41;;;;;;;7.20;3.87;;;;;;;16.40;37.14;98058.78;1708370;81;21048;-74
2021/04/11 12:03:31;;;;;;;3.95;2.58;;;;;;;16.51;37.00;98055.46;1735982;82;21105;-74
2021/04/11 12:06:32;;;;;;;24.80;11.10;;;;;;;16.53;37.21;98060.05;1754434;80;21182;-74
2021/04/11 12:09:24;;;;;;;13.80;5.67;;;;;;;16.47;37.08;98057.77;1754563;81;21146;-74
2021/04/11 12:12:12;;;;;;;4.58;1.85;;;;;;;16.60;36.81;98065.86;1752874;80;22050;-75
2021/04/11 12:15:28;;;;;;;10.80;3.65;;;;;;;16.58;36.67;98055.81;1754741;81;21532;-75
2021/04/11 12:18:13;;;;;;;8.95;3.60;;;;;;;16.52;36.93;98049.42;1754736;80;21028;-74
2021/04/11 12:20:56;;;;;;;14.03;6.70;;;;;;;16.42;37.15;98043.69;1754641;81;21142;-75
2021/04/11 12:23:31;;;;;;;11.43;5.12;;;;;;;16.37;37.37;98049.30;1727364;81;21111;-75
2021/04/11 12:26:16;;;;;;;4.47;2.37;;;;;;;16.29;37.45;98052.23;1754659;80;21131;-75
2021/04/11 12:28:42;;;;;;;7.45;3.10;;;;;;;16.23;37.28;98049.95;1754623;81;21095;-74
2021/04/11 12:31:17;;;;;;;13.53;7.55;;;;;;;16.09;37.42;98051.44;1754646;80;21122;-74
2021/04/11 12:34:14;;;;;;;5.65;2.77;;;;;;;15.91;37.71;98053.84;1754672;81;21075;-74
2021/04/11 12:37:14;;;;;;;9.13;5.05;;;;;;;16.03;37.43;98049.95;1754651;80;21122;-74
2021/04/11 12:39:41;;;;;;;7.62;4.17;;;;;;;15.66;38.21;98056.67;1754677;81;21274;-74